Hovedside
METAR-TAF:

METAR-TAF

Lufthavner :

Hammerfest lufthavn

Hammerfest, Norge

breddegrad: 70-40N, lengdegrad: 023-40E, høyde over havet: 8 m

Gjeldene værobservasjon

Denne rapporten ble laget for 39 minutter siden, klokken 13:50 UTC
Vind 12 kt fra Øst-nordøst
Temperatur 23°C
Luftfuktighet 57%
Trykk 1016 hPa
Sikt 10 km eller mer
ingen skyer under 1500 m og ingen bygeskyer

METAR: ENHF 181350Z 07012KT CAVOK 23/14 Q1016 RMK WIND 1254FT 08007KT

Tid: 16:29 (14:29 UTC)

Varsel

Denne rapporten ble laget for 3 timer og 29 minutter siden, klokken 11:00 UTC
Varsel gyldig fra 18. klokken 12 UTC til 18. klokken 21 UTC
Vind 10 kt fra Nordøst
Sikt 10 km eller mer
ingen skyer under 1500 m og ingen bygeskyer

TAF: ENHF 181100Z 1812/1821 05010KT CAVOK

Værobservasjoner og værvarsel for over 4000 flyplasser (METAR- og TAF-rapporter).

Tilgjengelige stasjoner er representert av de røde og gule prikkene på kartet.

Hold musepekeren over prikken for å se navnet på stasjonen.

Klikk så for å se værobservasjoner og -varsler.

For å forandre kartet kan du klikke på den grønne knappen med svart kryss for å zoome inn, på den grønne knappen med strek for å zoome ut, eller på de grønne pilene for å se tilstøtende kart.


METAR-TAF: